createdAt,value
2023-04-02T00:00:10.640Z,3.03
2023-04-02T00:03:15.439Z,2.70
2023-04-02T00:06:30.550Z,1.92
2023-04-02T00:09:35.946Z,2.95
2023-04-02T00:12:37.625Z,2.50
2023-04-02T00:15:41.522Z,2.87
2023-04-02T00:18:50.234Z,1.77
2023-04-02T00:21:53.137Z,2.05
2023-04-02T00:24:59.071Z,2.40
2023-04-02T00:28:00.834Z,2.30
2023-04-02T00:31:05.472Z,1.80
2023-04-02T00:34:11.528Z,2.30
2023-04-02T00:37:28.438Z,2.47
2023-04-02T00:40:34.213Z,2.42
2023-04-02T00:43:39.741Z,3.65
2023-04-02T00:46:49.742Z,3.93
2023-04-02T00:50:01.078Z,5.15
2023-04-02T00:53:16.785Z,1.75
2023-04-02T00:56:28.463Z,2.30
2023-04-02T00:59:36.879Z,1.75
2023-04-02T01:02:40.906Z,2.30
2023-04-02T01:05:50.246Z,3.33
2023-04-02T01:09:16.796Z,2.75
2023-04-02T01:12:39.656Z,2.25
2023-04-02T01:16:00.917Z,2.28
2023-04-02T01:19:31.802Z,3.20
2023-04-02T01:23:04.966Z,2.30
2023-04-02T01:26:31.333Z,4.72
2023-04-02T01:29:41.715Z,2.60
2023-04-02T01:32:45.618Z,3.50
2023-04-02T01:36:01.778Z,2.38
2023-04-02T01:39:45.862Z,2.13
2023-04-02T01:42:58.830Z,2.13
2023-04-02T01:46:26.026Z,2.42
2023-04-02T01:49:29.037Z,3.08
2023-04-02T01:52:46.348Z,2.47
2023-04-02T01:55:55.102Z,1.83
2023-04-02T01:58:58.809Z,1.85
2023-04-02T02:02:12.405Z,2.40
2023-04-02T02:05:19.114Z,3.42
2023-04-02T02:08:40.633Z,3.20
2023-04-02T02:11:44.668Z,3.75
2023-04-02T02:14:52.128Z,3.90
2023-04-02T02:18:02.524Z,3.40
2023-04-02T02:21:07.157Z,2.67
2023-04-02T02:24:36.163Z,2.93
2023-04-02T02:27:43.842Z,2.85
2023-04-02T02:30:52.796Z,3.67
2023-04-02T02:34:02.820Z,4.70
2023-04-02T02:37:15.130Z,2.42
2023-04-02T02:40:25.708Z,2.25
2023-04-02T02:43:30.664Z,2.63
2023-04-02T02:46:35.500Z,3.88
2023-04-02T02:49:43.474Z,5.63
2023-04-02T02:52:51.532Z,4.13
2023-04-02T02:55:58.002Z,1.90
2023-04-02T02:59:07.315Z,2.63
2023-04-02T03:02:16.283Z,4.22
2023-04-02T03:05:23.841Z,3.90
2023-04-02T03:08:46.797Z,3.80
2023-04-02T03:12:16.341Z,2.05
2023-04-02T03:15:22.657Z,3.63
2023-04-02T03:18:32.054Z,4.05
2023-04-02T03:21:48.735Z,3.38
2023-04-02T03:25:13.869Z,2.63
2023-04-02T03:28:22.975Z,2.97
2023-04-02T03:31:38.435Z,3.13
2023-04-02T03:35:01.553Z,3.45
2023-04-02T03:38:19.588Z,4.83
2023-04-02T03:41:41.622Z,3.95
2023-04-02T03:45:12.680Z,3.92
2023-04-02T03:48:31.433Z,2.45
2023-04-02T03:51:57.233Z,2.97
2023-04-02T03:55:10.696Z,3.25
2023-04-02T03:58:24.311Z,2.55
2023-04-02T04:01:35.423Z,1.93
2023-04-02T04:04:41.952Z,3.05
2023-04-02T04:07:44.729Z,4.78
2023-04-02T04:10:52.206Z,5.33
2023-04-02T04:14:17.344Z,4.18
2023-04-02T04:17:51.263Z,3.42
2023-04-02T04:21:01.004Z,5.25
2023-04-02T04:24:21.731Z,2.63
2023-04-02T04:27:36.103Z,3.95
2023-04-02T04:31:00.107Z,2.75
2023-04-02T04:34:18.452Z,3.10
2023-04-02T04:37:29.134Z,2.83
2023-04-02T04:40:37.721Z,3.00
2023-04-02T04:43:56.182Z,3.87
2023-04-02T04:47:10.736Z,3.40
2023-04-02T04:50:31.161Z,3.70
2023-04-02T04:53:33.293Z,2.63
2023-04-02T04:56:37.337Z,3.40
2023-04-02T04:59:52.605Z,2.65
2023-04-02T05:03:06.176Z,3.25
2023-04-02T05:06:36.980Z,3.17
2023-04-02T05:09:55.409Z,3.38
2023-04-02T05:13:28.568Z,2.85
2023-04-02T05:16:45.180Z,3.47
2023-04-02T05:19:53.857Z,4.18
2023-04-02T05:23:15.467Z,3.30
2023-04-02T05:26:39.028Z,2.58
2023-04-02T05:29:47.189Z,3.72
2023-04-02T05:32:59.784Z,3.72
2023-04-02T05:36:06.575Z,3.65
2023-04-02T05:39:21.854Z,2.63
2023-04-02T05:42:34.555Z,3.72
2023-04-02T05:45:51.591Z,3.55
2023-04-02T05:48:58.747Z,5.07
2023-04-02T05:52:03.576Z,2.50
2023-04-02T05:55:14.794Z,3.33
2023-04-02T05:58:36.220Z,2.75
2023-04-02T06:02:03.601Z,3.53
2023-04-02T06:05:17.403Z,3.65
2023-04-02T06:08:25.702Z,4.05
2023-04-02T06:11:32.800Z,3.20
2023-04-02T06:14:37.232Z,3.90
2023-04-02T06:17:47.535Z,3.53
2023-04-02T06:20:49.690Z,4.70
2023-04-02T06:24:02.742Z,3.90
2023-04-02T06:27:10.197Z,4.10
2023-04-02T06:30:27.531Z,3.95
2023-04-02T06:33:29.280Z,4.63
2023-04-02T06:36:32.764Z,4.68
2023-04-02T06:39:38.998Z,4.30
2023-04-02T06:42:49.665Z,4.03
2023-04-02T06:46:29.999Z,3.72
2023-04-02T06:49:51.091Z,3.75
2023-04-02T06:52:55.761Z,5.03
2023-04-02T06:56:22.231Z,4.30
2023-04-02T06:59:25.036Z,4.18
2023-04-02T07:02:37.264Z,4.55
2023-04-02T07:05:43.037Z,4.60
2023-04-02T07:08:45.697Z,4.05
2023-04-02T07:11:54.623Z,3.53
2023-04-02T07:14:56.523Z,2.83
2023-04-02T07:18:02.983Z,5.05
2023-04-02T07:21:08.058Z,4.75
2023-04-02T07:24:12.939Z,5.40
2023-04-02T07:27:17.895Z,4.47
2023-04-02T07:30:22.529Z,4.00
2023-04-02T07:33:32.539Z,5.93
2023-04-02T07:36:36.413Z,5.03
2023-04-02T07:39:46.706Z,4.05
2023-04-02T07:42:52.396Z,4.32
2023-04-02T07:45:58.123Z,4.70
2023-04-02T07:49:03.225Z,4.22
2023-04-02T07:52:11.298Z,5.50
2023-04-02T07:55:15.150Z,5.73
2023-04-02T07:58:20.261Z,4.95
2023-04-02T08:01:29.975Z,4.93
2023-04-02T08:04:31.677Z,5.38
2023-04-02T08:07:34.068Z,4.28
2023-04-02T08:10:39.100Z,5.07
2023-04-02T08:13:41.847Z,4.05
2023-04-02T08:16:56.653Z,5.13
2023-04-02T08:20:04.311Z,4.50
2023-04-02T08:23:20.926Z,5.25
2023-04-02T08:26:25.505Z,6.83
2023-04-02T08:29:37.168Z,4.47
2023-04-02T08:32:42.201Z,4.72
2023-04-02T08:35:46.336Z,4.50
2023-04-02T08:38:52.263Z,5.22
2023-04-02T08:42:01.595Z,4.40
2023-04-02T08:45:31.043Z,5.75
2023-04-02T08:52:01.669Z,5.97
2023-04-02T08:55:43.545Z,5.18
2023-04-02T08:58:57.052Z,4.80
2023-04-02T09:02:26.054Z,5.78
2023-04-02T09:05:35.674Z,4.30
2023-04-02T09:08:41.907Z,4.45
2023-04-02T09:12:05.004Z,3.92
2023-04-02T09:15:17.591Z,3.97
2023-04-02T09:18:23.386Z,4.10
2023-04-02T09:22:06.454Z,4.13
2023-04-02T09:25:19.420Z,4.95
2023-04-02T09:28:27.347Z,5.45
2023-04-02T09:32:19.548Z,3.37
2023-04-02T09:35:27.072Z,3.83
2023-04-02T09:38:32.731Z,3.97
2023-04-02T09:44:56.027Z,4.00
2023-04-02T09:48:01.144Z,4.20
2023-04-02T09:51:25.304Z,4.47
2023-04-02T09:54:30.342Z,4.83
2023-04-02T09:57:35.579Z,3.38
2023-04-02T10:00:41.861Z,5.45
2023-04-02T10:03:46.596Z,6.50
2023-04-02T10:06:58.247Z,8.98
2023-04-02T10:10:28.439Z,6.15
2023-04-02T10:14:10.838Z,8.63
2023-04-02T10:17:58.502Z,6.22
2023-04-02T10:21:10.522Z,8.02
2023-04-02T10:24:23.581Z,4.00
2023-04-02T10:27:56.911Z,8.77
2023-04-02T10:31:17.760Z,8.70
2023-04-02T10:34:52.645Z,8.60
2023-04-02T10:38:24.092Z,6.70
2023-04-02T10:41:55.986Z,14.50
2023-04-02T10:45:22.426Z,5.82
2023-04-02T10:49:11.921Z,3.90
2023-04-02T10:56:11.772Z,3.88
2023-04-02T10:59:33.532Z,4.38
2023-04-02T11:03:25.161Z,4.37
2023-04-02T11:06:58.102Z,4.15
2023-04-02T11:10:09.701Z,4.25
2023-04-02T11:13:42.848Z,4.18
2023-04-02T11:16:48.182Z,4.23
2023-04-02T11:19:53.812Z,4.15
2023-04-02T11:23:13.997Z,3.60
2023-04-02T11:26:56.502Z,4.15
2023-04-02T11:30:23.143Z,6.00
2023-04-02T11:33:54.108Z,4.10
2023-04-02T11:36:58.812Z,4.45
2023-04-02T11:40:03.884Z,4.53
2023-04-02T11:43:35.286Z,6.10
2023-04-02T11:46:43.389Z,5.13
2023-04-02T11:50:07.387Z,4.93
2023-04-02T11:53:19.844Z,4.57
2023-04-02T11:57:23.533Z,6.50
2023-04-02T12:01:06.996Z,5.65
2023-04-02T12:08:31.728Z,6.25
2023-04-02T12:11:41.498Z,5.95
2023-04-02T12:14:56.114Z,4.60
2023-04-02T12:18:22.648Z,6.27
2023-04-02T12:21:31.413Z,4.05
2023-04-02T12:24:43.312Z,3.47
2023-04-02T12:27:46.585Z,3.55
2023-04-02T12:30:59.134Z,4.17
2023-04-02T12:34:12.199Z,3.42
2023-04-02T12:37:29.622Z,4.38
2023-04-02T12:40:40.134Z,4.25
2023-04-02T12:43:57.382Z,4.50
2023-04-02T12:47:11.744Z,3.38
2023-04-02T12:50:17.976Z,4.47
2023-04-02T12:53:32.677Z,4.00
2023-04-02T12:56:35.925Z,4.85
2023-04-02T13:00:03.363Z,3.35
2023-04-02T13:03:34.424Z,3.45
2023-04-02T13:06:39.580Z,4.03
2023-04-02T13:09:46.746Z,4.60
2023-04-02T13:13:00.281Z,4.68
2023-04-02T13:16:25.843Z,4.40
2023-04-02T13:23:06.820Z,3.38
2023-04-02T13:26:28.211Z,3.60
2023-04-02T13:29:38.736Z,3.30
2023-04-02T13:36:02.132Z,3.00
2023-04-02T13:39:09.004Z,4.25
2023-04-02T13:42:13.459Z,3.92
2023-04-02T13:45:25.985Z,2.45
2023-04-02T13:48:31.678Z,3.30
2023-04-02T13:51:41.785Z,3.22
2023-04-02T13:54:54.656Z,3.27
2023-04-02T13:58:06.297Z,3.55
2023-04-02T14:01:17.133Z,3.80
2023-04-02T14:04:48.701Z,3.50
2023-04-02T14:08:19.555Z,3.03
2023-04-02T14:11:35.930Z,3.10
2023-04-02T14:15:03.692Z,3.20
2023-04-02T14:18:40.062Z,3.28
2023-04-02T14:22:12.743Z,3.47
2023-04-02T14:25:41.694Z,2.65
2023-04-02T14:29:12.898Z,3.22
2023-04-02T14:32:23.413Z,3.73
2023-04-02T14:35:52.951Z,3.78
2023-04-02T14:39:07.482Z,3.67
2023-04-02T14:42:26.819Z,4.97
2023-04-02T14:45:49.175Z,4.80
2023-04-02T14:49:05.106Z,5.30
2023-04-02T14:52:23.735Z,4.63
2023-04-02T14:55:51.450Z,5.57
2023-04-02T14:59:35.649Z,5.93
2023-04-02T15:02:56.446Z,5.85
2023-04-02T15:06:12.992Z,5.43
2023-04-02T15:09:25.593Z,6.63
2023-04-02T15:12:40.498Z,6.38
2023-04-02T15:16:06.738Z,5.90
2023-04-02T15:19:18.935Z,6.90
2023-04-02T15:22:32.311Z,6.32
2023-04-02T15:26:00.791Z,6.13
2023-04-02T15:29:42.043Z,5.53
2023-04-02T15:32:44.496Z,4.80
2023-04-02T15:35:59.488Z,4.60
2023-04-02T15:39:47.279Z,6.07
2023-04-02T15:43:24.281Z,18.90
2023-04-02T15:47:05.056Z,9.77
2023-04-02T15:50:38.365Z,9.88
2023-04-02T15:54:21.736Z,5.03
2023-04-02T15:58:00.145Z,5.63
2023-04-02T16:01:33.683Z,6.22
2023-04-02T16:05:16.546Z,5.80
2023-04-02T16:08:57.575Z,5.85
2023-04-02T16:12:23.048Z,9.05
2023-04-02T16:15:39.270Z,5.40
2023-04-02T16:19:29.573Z,5.20
2023-04-02T16:22:40.557Z,4.50
2023-04-02T16:26:18.379Z,8.57
2023-04-02T16:29:59.189Z,7.00
2023-04-02T16:33:46.562Z,5.78
2023-04-02T16:37:29.373Z,5.25
2023-04-02T16:41:08.497Z,7.80
2023-04-02T16:45:02.621Z,7.55
2023-04-02T16:48:57.306Z,5.03
2023-04-02T16:52:26.815Z,6.90
2023-04-02T17:00:33.675Z,4.70
2023-04-02T17:04:19.701Z,5.30
2023-04-02T17:07:52.029Z,5.80
2023-04-02T17:11:16.168Z,4.00
2023-04-02T17:18:08.084Z,4.60
2023-04-02T17:21:14.643Z,4.95
2023-04-02T17:24:45.956Z,4.35
2023-04-02T17:28:03.060Z,5.40
2023-04-02T17:31:37.337Z,6.50
2023-04-02T17:34:44.187Z,5.13
2023-04-02T17:38:07.133Z,6.57
2023-04-02T17:41:39.622Z,14.07
2023-04-02T17:45:04.070Z,13.63
2023-04-02T17:48:48.224Z,9.10
2023-04-02T17:52:09.322Z,25.67
2023-04-02T17:55:42.930Z,10.32
2023-04-02T17:59:22.813Z,24.13
2023-04-02T18:02:51.576Z,20.97
2023-04-02T18:06:09.787Z,11.20
2023-04-02T18:09:37.778Z,19.13
2023-04-02T18:13:26.575Z,10.05
2023-04-02T18:16:42.255Z,18.23
2023-04-02T18:20:17.384Z,25.73
2023-04-02T18:27:35.393Z,18.63
2023-04-02T18:31:27.319Z,16.17
2023-04-02T18:34:58.066Z,20.88
2023-04-02T18:38:21.709Z,9.80
2023-04-02T18:41:57.383Z,24.95
2023-04-02T18:45:24.099Z,19.95
2023-04-02T18:48:50.266Z,9.30
2023-04-02T18:52:00.808Z,9.48
2023-04-02T18:55:19.139Z,8.20
2023-04-02T18:58:31.496Z,10.90
2023-04-02T19:01:40.586Z,9.97
2023-04-02T19:05:07.370Z,11.13
2023-04-02T19:09:02.272Z,9.95
2023-04-02T19:12:45.783Z,10.93
2023-04-02T19:16:18.042Z,8.95
2023-04-02T19:19:57.502Z,8.23
2023-04-02T19:27:30.671Z,8.43
2023-04-02T19:30:55.219Z,8.60
2023-04-02T19:34:41.292Z,9.20
2023-04-02T19:37:58.715Z,10.70
2023-04-02T19:45:01.990Z,8.63
2023-04-02T19:48:14.562Z,9.00
2023-04-02T19:51:19.770Z,7.75
2023-04-02T19:54:25.821Z,7.50
2023-04-02T19:57:31.922Z,7.13
2023-04-02T20:00:36.519Z,6.85
2023-04-02T20:03:42.167Z,7.03
2023-04-02T20:06:47.108Z,7.22
2023-04-02T20:09:50.084Z,7.40
2023-04-02T20:13:01.826Z,7.90
2023-04-02T20:16:13.802Z,8.73
2023-04-02T20:19:16.929Z,7.43
2023-04-02T20:22:21.539Z,8.23
2023-04-02T20:25:36.168Z,8.27
2023-04-02T20:28:40.496Z,8.88
2023-04-02T20:31:43.258Z,7.65
2023-04-02T20:34:45.577Z,8.80
2023-04-02T20:37:56.401Z,8.20
2023-04-02T20:41:00.522Z,8.67
2023-04-02T20:44:11.854Z,8.18
2023-04-02T20:47:25.372Z,9.50
2023-04-02T20:50:29.118Z,8.23
2023-04-02T20:53:37.521Z,8.77
2023-04-02T20:56:42.996Z,9.15
2023-04-02T20:59:44.619Z,9.30
2023-04-02T21:02:50.404Z,8.25
2023-04-02T21:05:55.738Z,9.80
2023-04-02T21:09:15.992Z,9.32
2023-04-02T21:12:21.577Z,10.40
2023-04-02T21:15:26.401Z,9.82
2023-04-02T21:18:37.852Z,10.20
2023-04-02T21:25:01.965Z,9.73
2023-04-02T21:28:07.380Z,8.98
2023-04-02T21:31:33.059Z,10.23
2023-04-02T21:34:38.504Z,9.55
2023-04-02T21:37:48.397Z,10.70
2023-04-02T21:41:01.397Z,9.65
2023-04-02T21:44:11.620Z,10.63
2023-04-02T21:47:16.806Z,10.60
2023-04-02T21:50:22.132Z,9.50
2023-04-02T21:53:33.141Z,10.93
2023-04-02T21:56:44.226Z,10.90
2023-04-02T21:59:48.180Z,9.77
2023-04-02T22:02:53.576Z,10.15
2023-04-02T22:06:17.620Z,10.77
2023-04-02T22:09:26.968Z,9.27
2023-04-02T22:12:31.667Z,9.98
2023-04-02T22:15:34.734Z,10.30
2023-04-02T22:18:41.851Z,11.68
2023-04-02T22:25:12.249Z,8.67
2023-04-02T22:28:23.273Z,9.80
2023-04-02T22:31:35.304Z,10.65
2023-04-02T22:34:57.466Z,9.68
2023-04-02T22:41:33.311Z,9.65
2023-04-02T22:44:37.465Z,9.68
2023-04-02T22:47:43.055Z,8.90
2023-04-02T22:50:52.099Z,11.80
2023-04-02T22:53:57.152Z,9.52
2023-04-02T22:57:02.055Z,9.40
2023-04-02T23:00:15.237Z,9.23
2023-04-02T23:03:20.086Z,9.00
2023-04-02T23:06:27.134Z,10.15
2023-04-02T23:09:32.693Z,11.75
2023-04-02T23:12:36.519Z,9.98
2023-04-02T23:15:41.633Z,10.55
2023-04-02T23:19:08.586Z,9.73
2023-04-02T23:22:13.141Z,11.10
2023-04-02T23:25:24.257Z,9.63
2023-04-02T23:28:37.675Z,9.70
2023-04-02T23:31:39.694Z,9.57
2023-04-02T23:34:43.711Z,11.35
2023-04-02T23:37:55.840Z,10.45
2023-04-02T23:41:00.563Z,8.43
2023-04-02T23:44:11.775Z,10.07
2023-04-02T23:47:16.896Z,9.57
2023-04-02T23:50:20.054Z,10.60
2023-04-02T23:53:22.429Z,8.63
2023-04-02T23:56:34.248Z,9.35
